sensor_id;sensor_type;location;lat;lon;timestamp;pressure;altitude;pressure_sealevel;temperature;humidity
64668;BME280;51077;42.716;23.344;2024-03-07T00:00:44;95174.47;;;12.34;56.87
64668;BME280;51077;42.716;23.344;2024-03-07T00:03:10;95164.94;;;12.35;56.98
64668;BME280;51077;42.716;23.344;2024-03-07T00:05:35;95165.22;;;12.31;56.94
64668;BME280;51077;42.716;23.344;2024-03-07T00:08:01;95164.72;;;12.33;57.00
64668;BME280;51077;42.716;23.344;2024-03-07T00:10:27;95171.56;;;12.26;57.26
64668;BME280;51077;42.716;23.344;2024-03-07T00:12:52;95174.63;;;12.23;57.33
64668;BME280;51077;42.716;23.344;2024-03-07T00:15:18;95162.16;;;12.22;57.33
64668;BME280;51077;42.716;23.344;2024-03-07T00:17:43;95160.66;;;12.21;57.32
64668;BME280;51077;42.716;23.344;2024-03-07T00:20:09;95155.16;;;12.21;57.58
64668;BME280;51077;42.716;23.344;2024-03-07T00:22:39;95147.44;;;12.19;57.76
64668;BME280;51077;42.716;23.344;2024-03-07T00:25:05;95150.50;;;12.16;57.80
64668;BME280;51077;42.716;23.344;2024-03-07T00:27:32;95147.81;;;12.10;58.09
64668;BME280;51077;42.716;23.344;2024-03-07T00:29:59;95146.88;;;12.07;58.03
64668;BME280;51077;42.716;23.344;2024-03-07T00:32:24;95142.22;;;12.02;58.54
64668;BME280;51077;42.716;23.344;2024-03-07T00:34:52;95143.25;;;11.99;58.61
64668;BME280;51077;42.716;23.344;2024-03-07T00:37:17;95144.59;;;11.93;58.64
64668;BME280;51077;42.716;23.344;2024-03-07T00:39:43;95138.16;;;11.90;58.81
64668;BME280;51077;42.716;23.344;2024-03-07T00:42:08;95137.72;;;11.86;58.92
64668;BME280;51077;42.716;23.344;2024-03-07T00:44:34;95142.97;;;11.84;59.00
64668;BME280;51077;42.716;23.344;2024-03-07T00:47:00;95136.50;;;11.81;59.02
64668;BME280;51077;42.716;23.344;2024-03-07T00:49:25;95142.00;;;11.81;59.09
64668;BME280;51077;42.716;23.344;2024-03-07T00:51:51;95140.28;;;11.78;59.36
64668;BME280;51077;42.716;23.344;2024-03-07T00:54:16;95131.84;;;11.76;59.24
64668;BME280;51077;42.716;23.344;2024-03-07T00:56:41;95121.66;;;11.71;59.36
64668;BME280;51077;42.716;23.344;2024-03-07T00:59:07;95126.41;;;11.71;59.66
64668;BME280;51077;42.716;23.344;2024-03-07T01:01:33;95127.66;;;11.70;59.20
64668;BME280;51077;42.716;23.344;2024-03-07T01:04:02;95119.72;;;11.66;59.76
64668;BME280;51077;42.716;23.344;2024-03-07T01:06:27;95117.50;;;11.65;59.65
64668;BME280;51077;42.716;23.344;2024-03-07T01:08:53;95114.53;;;11.63;59.86
64668;BME280;51077;42.716;23.344;2024-03-07T01:11:19;95115.28;;;11.63;59.80
64668;BME280;51077;42.716;23.344;2024-03-07T01:13:44;95116.84;;;11.58;59.98
64668;BME280;51077;42.716;23.344;2024-03-07T01:16:10;95107.88;;;11.58;59.84
64668;BME280;51077;42.716;23.344;2024-03-07T01:18:36;95108.38;;;11.56;59.82
64668;BME280;51077;42.716;23.344;2024-03-07T01:21:04;95105.91;;;11.53;60.04
64668;BME280;51077;42.716;23.344;2024-03-07T01:23:30;95105.19;;;11.52;60.07
64668;BME280;51077;42.716;23.344;2024-03-07T01:25:57;95102.44;;;11.52;59.94
64668;BME280;51077;42.716;23.344;2024-03-07T01:28:26;95106.25;;;11.49;59.99
64668;BME280;51077;42.716;23.344;2024-03-07T01:30:55;95107.28;;;11.46;60.29
64668;BME280;51077;42.716;23.344;2024-03-07T01:33:21;95110.53;;;11.45;60.47
64668;BME280;51077;42.716;23.344;2024-03-07T01:35:47;95101.34;;;11.42;60.27
64668;BME280;51077;42.716;23.344;2024-03-07T01:38:13;95109.59;;;11.42;60.40
64668;BME280;51077;42.716;23.344;2024-03-07T01:40:42;95096.59;;;11.43;60.26
64668;BME280;51077;42.716;23.344;2024-03-07T01:43:08;95095.09;;;11.42;60.20
64668;BME280;51077;42.716;23.344;2024-03-07T01:45:35;95089.31;;;11.45;60.34
64668;BME280;51077;42.716;23.344;2024-03-07T01:48:09;95106.59;;;11.40;60.47
64668;BME280;51077;42.716;23.344;2024-03-07T01:50:35;95094.13;;;11.39;60.22
64668;BME280;51077;42.716;23.344;2024-03-07T01:53:05;95102.66;;;11.36;60.30
64668;BME280;51077;42.716;23.344;2024-03-07T01:55:31;95106.47;;;11.32;60.64
64668;BME280;51077;42.716;23.344;2024-03-07T01:57:59;95105.50;;;11.30;60.71
64668;BME280;51077;42.716;23.344;2024-03-07T02:00:25;95106.53;;;11.27;60.77
64668;BME280;51077;42.716;23.344;2024-03-07T02:02:52;95113.00;;;11.29;60.61
64668;BME280;51077;42.716;23.344;2024-03-07T02:05:18;95117.97;;;11.31;60.79
64668;BME280;51077;42.716;23.344;2024-03-07T02:07:44;95116.47;;;11.30;60.72
64668;BME280;51077;42.716;23.344;2024-03-07T02:10:09;95111.22;;;11.32;60.41
64668;BME280;51077;42.716;23.344;2024-03-07T02:12:35;95111.97;;;11.32;60.72
64668;BME280;51077;42.716;23.344;2024-03-07T02:15:01;95113.66;;;11.36;60.45
64668;BME280;51077;42.716;23.344;2024-03-07T02:17:28;95108.41;;;11.38;60.17
64668;BME280;51077;42.716;23.344;2024-03-07T02:19:53;95097.41;;;11.38;60.07
64668;BME280;51077;42.716;23.344;2024-03-07T02:22:19;95106.16;;;11.36;60.03
64668;BME280;51077;42.716;23.344;2024-03-07T02:24:45;95104.16;;;11.37;60.06
64668;BME280;51077;42.716;23.344;2024-03-07T02:27:11;95096.44;;;11.35;60.10
64668;BME280;51077;42.716;23.344;2024-03-07T02:29:37;95092.22;;;11.34;60.16
64668;BME280;51077;42.716;23.344;2024-03-07T02:32:03;95085.00;;;11.31;60.12
64668;BME280;51077;42.716;23.344;2024-03-07T02:34:29;95089.00;;;11.30;60.10
64668;BME280;51077;42.716;23.344;2024-03-07T02:36:55;95090.50;;;11.31;59.98
64668;BME280;51077;42.716;23.344;2024-03-07T02:39:20;95106.97;;;11.31;60.14
64668;BME280;51077;42.716;23.344;2024-03-07T02:41:50;95109.72;;;11.31;59.88
64668;BME280;51077;42.716;23.344;2024-03-07T02:44:16;95111.56;;;11.23;60.11
64668;BME280;51077;42.716;23.344;2024-03-07T02:46:41;95110.84;;;11.22;60.16
64668;BME280;51077;42.716;23.344;2024-03-07T02:49:07;95118.88;;;11.20;60.30
64668;BME280;51077;42.716;23.344;2024-03-07T02:51:33;95115.88;;;11.18;60.22
64668;BME280;51077;42.716;23.344;2024-03-07T02:53:58;95111.13;;;11.19;60.23
64668;BME280;51077;42.716;23.344;2024-03-07T02:56:24;95111.13;;;11.19;60.18
64668;BME280;51077;42.716;23.344;2024-03-07T02:58:50;95118.88;;;11.20;60.11
64668;BME280;51077;42.716;23.344;2024-03-07T03:01:17;95121.38;;;11.18;60.04
64668;BME280;51077;42.716;23.344;2024-03-07T03:03:43;95121.91;;;11.17;60.21
64668;BME280;51077;42.716;23.344;2024-03-07T03:06:09;95124.44;;;11.15;60.04
64668;BME280;51077;42.716;23.344;2024-03-07T03:08:35;95120.19;;;11.14;60.30
64668;BME280;51077;42.716;23.344;2024-03-07T03:11:01;95122.94;;;11.14;60.25
64668;BME280;51077;42.716;23.344;2024-03-07T03:13:26;95120.19;;;11.14;60.22
64668;BME280;51077;42.716;23.344;2024-03-07T03:15:53;95132.97;;;11.11;60.05
64668;BME280;51077;42.716;23.344;2024-03-07T03:18:21;95125.69;;;11.14;59.86
64668;BME280;51077;42.716;23.344;2024-03-07T03:20:46;95125.47;;;11.12;59.91
64668;BME280;51077;42.716;23.344;2024-03-07T03:23:13;95118.72;;;11.13;59.80
64668;BME280;51077;42.716;23.344;2024-03-07T03:25:40;95122.47;;;11.10;59.98
64668;BME280;51077;42.716;23.344;2024-03-07T03:28:06;95122.28;;;11.07;59.89
64668;BME280;51077;42.716;23.344;2024-03-07T03:30:39;95125.53;;;11.06;59.91
64668;BME280;51077;42.716;23.344;2024-03-07T03:33:06;95129.53;;;11.05;60.01
64668;BME280;51077;42.716;23.344;2024-03-07T03:35:32;95133.53;;;11.04;59.77
64668;BME280;51077;42.716;23.344;2024-03-07T03:37:58;95132.81;;;11.03;59.90
64668;BME280;51077;42.716;23.344;2024-03-07T03:40:24;95147.81;;;11.02;59.66
64668;BME280;51077;42.716;23.344;2024-03-07T03:42:49;95156.25;;;11.04;59.79
64668;BME280;51077;42.716;23.344;2024-03-07T03:45:15;95138.81;;;11.02;59.55
64668;BME280;51077;42.716;23.344;2024-03-07T03:47:41;95131.81;;;11.01;59.60
64668;BME280;51077;42.716;23.344;2024-03-07T03:50:08;95132.34;;;10.99;59.91
64668;BME280;51077;42.716;23.344;2024-03-07T03:52:35;95127.16;;;10.96;60.10
64668;BME280;51077;42.716;23.344;2024-03-07T03:55:01;95133.16;;;10.94;60.34
64668;BME280;51077;42.716;23.344;2024-03-07T03:57:28;95122.72;;;10.93;60.53
64668;BME280;51077;42.716;23.344;2024-03-07T03:59:54;95114.97;;;10.91;60.40
64668;BME280;51077;42.716;23.344;2024-03-07T04:02:21;95105.25;;;10.90;60.25
64668;BME280;51077;42.716;23.344;2024-03-07T04:04:50;95109.78;;;10.88;60.22
64668;BME280;51077;42.716;23.344;2024-03-07T04:07:17;95108.06;;;10.85;60.28
64668;BME280;51077;42.716;23.344;2024-03-07T04:09:43;95116.81;;;10.83;60.31
64668;BME280;51077;42.716;23.344;2024-03-07T04:12:09;95124.84;;;10.81;60.21
64668;BME280;51077;42.716;23.344;2024-03-07T04:14:45;95121.19;;;10.73;60.14
64668;BME280;51077;42.716;23.344;2024-03-07T04:17:10;95120.72;;;10.69;60.08
64668;BME280;51077;42.716;23.344;2024-03-07T04:19:42;95121.53;;;10.64;60.28
64668;BME280;51077;42.716;23.344;2024-03-07T04:22:08;95124.50;;;10.66;60.38
64668;BME280;51077;42.716;23.344;2024-03-07T04:24:37;95134.25;;;10.67;61.25
64668;BME280;51077;42.716;23.344;2024-03-07T04:27:03;95147.72;;;10.65;60.87
64668;BME280;51077;42.716;23.344;2024-03-07T04:29:33;95128.75;;;10.67;60.53
64668;BME280;51077;42.716;23.344;2024-03-07T04:31:59;95131.53;;;10.61;60.48
64668;BME280;51077;42.716;23.344;2024-03-07T04:34:26;95138.56;;;10.56;60.36
64668;BME280;51077;42.716;23.344;2024-03-07T04:36:53;95136.63;;;10.51;60.22
64668;BME280;51077;42.716;23.344;2024-03-07T04:39:19;95129.19;;;10.46;60.06
64668;BME280;51077;42.716;23.344;2024-03-07T04:41:55;95139.19;;;10.44;59.80
64668;BME280;51077;42.716;23.344;2024-03-07T04:44:21;95132.03;;;10.35;59.63
64668;BME280;51077;42.716;23.344;2024-03-07T04:46:50;95124.09;;;10.31;59.65
64668;BME280;51077;42.716;23.344;2024-03-07T04:49:23;95127.28;;;10.36;59.21
64668;BME280;51077;42.716;23.344;2024-03-07T04:51:52;95130.34;;;10.32;59.25
64668;BME280;51077;42.716;23.344;2024-03-07T04:54:18;95128.63;;;10.29;59.16
64668;BME280;51077;42.716;23.344;2024-03-07T04:56:48;95131.88;;;10.27;59.14
64668;BME280;51077;42.716;23.344;2024-03-07T04:59:14;95142.13;;;10.21;58.89
64668;BME280;51077;42.716;23.344;2024-03-07T05:01:40;95137.94;;;10.15;59.08
64668;BME280;51077;42.716;23.344;2024-03-07T05:04:06;95146.91;;;10.15;58.98
64668;BME280;51077;42.716;23.344;2024-03-07T05:06:32;95150.94;;;10.08;59.11
64668;BME280;51077;42.716;23.344;2024-03-07T05:09:03;95166.44;;;10.06;58.99
64668;BME280;51077;42.716;23.344;2024-03-07T05:11:30;95152.94;;;10.08;58.84
64668;BME280;51077;42.716;23.344;2024-03-07T05:13:56;95155.00;;;10.02;58.82
64668;BME280;51077;42.716;23.344;2024-03-07T05:16:26;95154.47;;;10.03;58.63
64668;BME280;51077;42.716;23.344;2024-03-07T05:18:51;95152.75;;;10.00;58.68
64668;BME280;51077;42.716;23.344;2024-03-07T05:21:19;95145.78;;;9.99;58.54
64668;BME280;51077;42.716;23.344;2024-03-07T05:24:12;95146.81;;;9.96;58.55
64668;BME280;51077;42.716;23.344;2024-03-07T05:26:38;95150.81;;;9.95;58.58
64668;BME280;51077;42.716;23.344;2024-03-07T05:29:07;95159.78;;;9.96;58.34
64668;BME280;51077;42.716;23.344;2024-03-07T05:31:37;95161.78;;;9.95;58.21
64668;BME280;51077;42.716;23.344;2024-03-07T05:34:04;95175.25;;;9.93;58.21
64668;BME280;51077;42.716;23.344;2024-03-07T05:36:33;95176.50;;;9.92;58.21
64668;BME280;51077;42.716;23.344;2024-03-07T05:38:59;95175.22;;;9.99;58.03
64668;BME280;51077;42.716;23.344;2024-03-07T05:41:25;95170.47;;;9.99;58.07
64668;BME280;51077;42.716;23.344;2024-03-07T05:43:53;95168.94;;;10.04;57.93
64668;BME280;51077;42.716;23.344;2024-03-07T05:46:19;95165.66;;;10.11;57.71
64668;BME280;51077;42.716;23.344;2024-03-07T05:48:45;95170.84;;;10.15;57.73
64668;BME280;51077;42.716;23.344;2024-03-07T05:51:15;95172.56;;;10.18;57.71
64668;BME280;51077;42.716;23.344;2024-03-07T05:53:40;95172.28;;;10.21;57.73
64668;BME280;51077;42.716;23.344;2024-03-07T05:56:07;95168.56;;;10.24;57.59
64668;BME280;51077;42.716;23.344;2024-03-07T05:58:33;95176.25;;;10.26;57.71
64668;BME280;51077;42.716;23.344;2024-03-07T06:00:58;95171.03;;;10.28;57.64
64668;BME280;51077;42.716;23.344;2024-03-07T06:03:24;95185.97;;;10.27;57.52
64668;BME280;51077;42.716;23.344;2024-03-07T06:05:51;95188.50;;;10.25;57.57
64668;BME280;51077;42.716;23.344;2024-03-07T06:08:20;95191.47;;;10.27;57.32
64668;BME280;51077;42.716;23.344;2024-03-07T06:10:47;95189.19;;;10.31;57.36
64668;BME280;51077;42.716;23.344;2024-03-07T06:13:14;95190.22;;;10.28;57.38
64668;BME280;51077;42.716;23.344;2024-03-07T06:15:43;95192.97;;;10.28;57.26
64668;BME280;51077;42.716;23.344;2024-03-07T06:18:09;95192.44;;;10.29;56.98
64668;BME280;51077;42.716;23.344;2024-03-07T06:20:36;95196.66;;;10.30;57.25
64668;BME280;51077;42.716;23.344;2024-03-07T06:23:03;95196.41;;;10.34;57.16
64668;BME280;51077;42.716;23.344;2024-03-07T06:25:32;95204.41;;;10.32;57.16
64668;BME280;51077;42.716;23.344;2024-03-07T06:28:13;95208.84;;;10.35;57.11
64668;BME280;51077;42.716;23.344;2024-03-07T06:30:40;95210.13;;;10.34;56.69
64668;BME280;51077;42.716;23.344;2024-03-07T06:33:06;95215.31;;;10.38;56.77
64668;BME280;51077;42.716;23.344;2024-03-07T06:35:32;95211.09;;;10.37;56.99
64668;BME280;51077;42.716;23.344;2024-03-07T06:37:57;95209.91;;;10.32;57.04
64668;BME280;51077;42.716;23.344;2024-03-07T06:40:22;95204.63;;;10.34;56.95
64668;BME280;51077;42.716;23.344;2024-03-07T06:42:49;95200.13;;;10.37;56.93
64668;BME280;51077;42.716;23.344;2024-03-07T06:45:15;95189.38;;;10.39;56.77
64668;BME280;51077;42.716;23.344;2024-03-07T06:47:41;95191.59;;;10.40;56.57
64668;BME280;51077;42.716;23.344;2024-03-07T06:50:07;95188.63;;;10.38;56.44
64668;BME280;51077;42.716;23.344;2024-03-07T06:52:35;95196.41;;;10.34;56.47
64668;BME280;51077;42.716;23.344;2024-03-07T06:55:03;95212.59;;;10.38;56.19
64668;BME280;51077;42.716;23.344;2024-03-07T06:57:29;95211.09;;;10.37;56.65
64668;BME280;51077;42.716;23.344;2024-03-07T06:59:54;95211.84;;;10.37;56.42
64668;BME280;51077;42.716;23.344;2024-03-07T07:02:20;95213.78;;;10.42;56.53
64668;BME280;51077;42.716;23.344;2024-03-07T07:04:46;95219.97;;;10.48;56.45
64668;BME280;51077;42.716;23.344;2024-03-07T07:07:13;95213.72;;;10.48;56.36
64668;BME280;51077;42.716;23.344;2024-03-07T07:09:40;95210.50;;;10.49;56.35
64668;BME280;51077;42.716;23.344;2024-03-07T07:12:06;95205.97;;;10.52;56.16
64668;BME280;51077;42.716;23.344;2024-03-07T07:14:31;95211.91;;;10.56;55.85
64668;BME280;51077;42.716;23.344;2024-03-07T07:16:57;95193.22;;;10.54;55.97
64668;BME280;51077;42.716;23.344;2024-03-07T07:19:24;95187.97;;;10.56;55.96
64668;BME280;51077;42.716;23.344;2024-03-07T07:21:49;95184.88;;;10.66;55.95
64668;BME280;51077;42.716;23.344;2024-03-07T07:24:19;95181.03;;;10.74;55.79
64668;BME280;51077;42.716;23.344;2024-03-07T07:26:47;95187.75;;;10.79;55.83
64668;BME280;51077;42.716;23.344;2024-03-07T07:29:12;95197.69;;;10.82;55.63
64668;BME280;51077;42.716;23.344;2024-03-07T07:31:37;95197.41;;;10.86;55.48
64668;BME280;51077;42.716;23.344;2024-03-07T07:34:03;95199.34;;;10.91;55.58
64668;BME280;51077;42.716;23.344;2024-03-07T07:36:30;95192.41;;;11.08;58.43
64668;BME280;51077;42.716;23.344;2024-03-07T07:38:55;95191.78;;;11.21;58.55
64668;BME280;51077;42.716;23.344;2024-03-07T07:41:21;95195.44;;;11.29;58.49
64668;BME280;51077;42.716;23.344;2024-03-07T07:43:47;95196.31;;;11.38;57.95
64668;BME280;51077;42.716;23.344;2024-03-07T07:46:13;95188.25;;;11.45;57.20
64668;BME280;51077;42.716;23.344;2024-03-07T07:48:38;95193.88;;;11.53;56.91
64668;BME280;51077;42.716;23.344;2024-03-07T07:51:04;95188.00;;;11.62;56.67
64668;BME280;51077;42.716;23.344;2024-03-07T07:53:30;95183.38;;;11.70;56.31
64668;BME280;51077;42.716;23.344;2024-03-07T07:55:55;95182.81;;;11.77;55.89
64668;BME280;51077;42.716;23.344;2024-03-07T07:58:22;95187.50;;;11.82;55.76
64668;BME280;51077;42.716;23.344;2024-03-07T08:00:48;95181.72;;;11.86;55.43
64668;BME280;51077;42.716;23.344;2024-03-07T08:03:14;95178.13;;;11.91;55.27
64668;BME280;51077;42.716;23.344;2024-03-07T08:05:43;95183.34;;;11.95;54.72
64668;BME280;51077;42.716;23.344;2024-03-07T08:08:10;95187.06;;;11.97;54.63
64668;BME280;51077;42.716;23.344;2024-03-07T08:10:40;95188.75;;;12.00;54.28
64668;BME280;51077;42.716;23.344;2024-03-07T08:13:06;95191.94;;;12.04;54.11
64668;BME280;51077;42.716;23.344;2024-03-07T08:15:31;95201.47;;;12.03;54.13
64668;BME280;51077;42.716;23.344;2024-03-07T08:17:58;95203.69;;;12.05;53.90
64668;BME280;51077;42.716;23.344;2024-03-07T08:20:25;95205.38;;;12.08;54.01
64668;BME280;51077;42.716;23.344;2024-03-07T08:22:52;95207.31;;;12.13;54.00
64668;BME280;51077;42.716;23.344;2024-03-07T08:25:28;95208.03;;;12.14;53.80
64668;BME280;51077;42.716;23.344;2024-03-07T08:27:58;95219.28;;;12.16;53.41
64668;BME280;51077;42.716;23.344;2024-03-07T08:30:24;95222.03;;;12.16;53.10
64668;BME280;51077;42.716;23.344;2024-03-07T08:32:56;95236.53;;;12.16;53.13
64668;BME280;51077;42.716;23.344;2024-03-07T08:35:22;95233.03;;;12.16;52.96
64668;BME280;51077;42.716;23.344;2024-03-07T08:37:51;95238.09;;;12.12;52.94
64668;BME280;51077;42.716;23.344;2024-03-07T08:40:22;95245.63;;;12.11;52.92
64668;BME280;51077;42.716;23.344;2024-03-07T08:42:49;95244.09;;;12.10;53.17
64668;BME280;51077;42.716;23.344;2024-03-07T08:45:16;95249.84;;;12.12;53.13
64668;BME280;51077;42.716;23.344;2024-03-07T08:47:45;95244.63;;;12.08;52.81
64668;BME280;51077;42.716;23.344;2024-03-07T08:50:12;95249.31;;;12.14;52.76
64668;BME280;51077;42.716;23.344;2024-03-07T08:52:39;95254.38;;;12.10;52.63
64668;BME280;51077;42.716;23.344;2024-03-07T08:55:09;95260.63;;;12.10;52.43
64668;BME280;51077;42.716;23.344;2024-03-07T08:57:35;95252.16;;;12.08;52.64
64668;BME280;51077;42.716;23.344;2024-03-07T09:00:03;95254.69;;;12.06;52.66
64668;BME280;51077;42.716;23.344;2024-03-07T09:02:34;95251.72;;;12.04;52.48
64668;BME280;51077;42.716;23.344;2024-03-07T09:05:01;95258.25;;;12.01;52.67
64668;BME280;51077;42.716;23.344;2024-03-07T09:07:26;95258.47;;;12.03;52.55
64668;BME280;51077;42.716;23.344;2024-03-07T09:09:51;95251.19;;;12.05;52.51
64668;BME280;51077;42.716;23.344;2024-03-07T09:12:17;95254.31;;;12.15;52.54
64668;BME280;51077;42.716;23.344;2024-03-07T09:14:45;95264.06;;;12.16;52.52
64668;BME280;51077;42.716;23.344;2024-03-07T09:17:10;95255.50;;;12.20;52.34
64668;BME280;51077;42.716;23.344;2024-03-07T09:19:37;95258.69;;;12.24;52.04
64668;BME280;51077;42.716;23.344;2024-03-07T09:22:03;95255.84;;;12.29;52.18
64668;BME280;51077;42.716;23.344;2024-03-07T09:24:30;95251.31;;;12.32;52.19
64668;BME280;51077;42.716;23.344;2024-03-07T09:26:55;95264.97;;;12.38;52.15
64668;BME280;51077;42.716;23.344;2024-03-07T09:29:22;95261.94;;;12.41;52.07
64668;BME280;51077;42.716;23.344;2024-03-07T09:31:52;95264.88;;;12.43;52.05
64668;BME280;51077;42.716;23.344;2024-03-07T09:34:18;95255.81;;;12.48;52.04
64668;BME280;51077;42.716;23.344;2024-03-07T09:36:45;95262.19;;;12.56;51.77
64668;BME280;51077;42.716;23.344;2024-03-07T09:39:11;95255.84;;;12.62;51.67
64668;BME280;51077;42.716;23.344;2024-03-07T09:41:39;95262.00;;;12.68;51.42
64668;BME280;51077;42.716;23.344;2024-03-07T09:44:05;95257.38;;;12.76;51.58
64668;BME280;51077;42.716;23.344;2024-03-07T09:46:34;95266.28;;;12.82;51.42
64668;BME280;51077;42.716;23.344;2024-03-07T09:49:00;95261.09;;;12.92;51.49
64668;BME280;51077;42.716;23.344;2024-03-07T09:51:27;95268.00;;;12.98;51.22
64668;BME280;51077;42.716;23.344;2024-03-07T09:53:55;95266.84;;;13.07;51.02
64668;BME280;51077;42.716;23.344;2024-03-07T09:56:24;95256.25;;;13.11;51.05
64668;BME280;51077;42.716;23.344;2024-03-07T09:58:51;95265.47;;;13.14;50.84
64668;BME280;51077;42.716;23.344;2024-03-07T10:01:21;95270.13;;;13.19;51.89
64668;BME280;51077;42.716;23.344;2024-03-07T10:03:48;95269.84;;;13.22;51.74
64668;BME280;51077;42.716;23.344;2024-03-07T10:06:15;95263.06;;;13.23;51.84
64668;BME280;51077;42.716;23.344;2024-03-07T10:08:42;95255.97;;;13.28;51.23
64668;BME280;51077;42.716;23.344;2024-03-07T10:11:07;95230.31;;;13.33;51.10
64668;BME280;51077;42.716;23.344;2024-03-07T10:13:34;95225.66;;;13.41;51.01
64668;BME280;51077;42.716;23.344;2024-03-07T10:16:00;95223.19;;;13.51;50.55
64668;BME280;51077;42.716;23.344;2024-03-07T10:18:26;95231.75;;;13.61;50.42
64668;BME280;51077;42.716;23.344;2024-03-07T10:20:54;95234.09;;;13.70;50.63
64668;BME280;51077;42.716;23.344;2024-03-07T10:23:20;95231.84;;;13.81;50.56
64668;BME280;51077;42.716;23.344;2024-03-07T10:25:50;95234.34;;;13.93;50.19
64668;BME280;51077;42.716;23.344;2024-03-07T10:28:16;95237.41;;;14.02;50.43
64668;BME280;51077;42.716;23.344;2024-03-07T10:30:43;95234.94;;;14.12;50.12
64668;BME280;51077;42.716;23.344;2024-03-07T10:33:12;95240.53;;;14.20;50.09
64668;BME280;51077;42.716;23.344;2024-03-07T10:35:38;95231.97;;;14.31;49.87
64668;BME280;51077;42.716;23.344;2024-03-07T10:38:03;95228.22;;;14.42;49.50
64668;BME280;51077;42.716;23.344;2024-03-07T10:40:32;95222.78;;;14.49;49.26
64668;BME280;51077;42.716;23.344;2024-03-07T10:42:58;95226.69;;;14.54;49.11
64668;BME280;51077;42.716;23.344;2024-03-07T10:45:28;95226.03;;;14.61;48.92
64668;BME280;51077;42.716;23.344;2024-03-07T10:47:56;95226.97;;;14.64;48.81
64668;BME280;51077;42.716;23.344;2024-03-07T10:50:47;95222.72;;;14.63;48.57
64668;BME280;51077;42.716;23.344;2024-03-07T11:01:30;95215.47;;;14.52;47.88
64668;BME280;51077;42.716;23.344;2024-03-07T11:03:59;95223.94;;;14.54;48.00
64668;BME280;51077;42.716;23.344;2024-03-07T11:06:25;95208.13;;;14.54;48.15
64668;BME280;51077;42.716;23.344;2024-03-07T11:08:52;95209.38;;;14.53;48.00
64668;BME280;51077;42.716;23.344;2024-03-07T11:11:17;95207.72;;;14.50;47.86
64668;BME280;51077;42.716;23.344;2024-03-07T11:13:43;95210.56;;;14.45;47.78
64668;BME280;51077;42.716;23.344;2024-03-07T11:16:10;95207.06;;;14.44;47.79
64668;BME280;51077;42.716;23.344;2024-03-07T11:18:38;95204.63;;;14.41;47.79
64668;BME280;51077;42.716;23.344;2024-03-07T11:21:05;95203.72;;;14.38;47.77
64668;BME280;51077;42.716;23.344;2024-03-07T11:23:33;95200.13;;;14.30;47.72
64668;BME280;51077;42.716;23.344;2024-03-07T11:26:10;95195.69;;;14.27;47.76
64668;BME280;51077;42.716;23.344;2024-03-07T11:28:39;95201.16;;;14.19;47.94
64668;BME280;51077;42.716;23.344;2024-03-07T11:31:15;95200.34;;;14.11;48.06
64668;BME280;51077;42.716;23.344;2024-03-07T11:33:41;95200.25;;;14.03;48.19
64668;BME280;51077;42.716;23.344;2024-03-07T11:36:09;95196.22;;;14.04;48.10
64668;BME280;51077;42.716;23.344;2024-03-07T11:38:37;95197.09;;;13.99;48.29
64668;BME280;51077;42.716;23.344;2024-03-07T11:41:04;95194.25;;;13.92;48.14
64668;BME280;51077;42.716;23.344;2024-03-07T11:43:33;95192.94;;;13.93;48.20
64668;BME280;51077;42.716;23.344;2024-03-07T11:46:00;95194.78;;;13.90;48.34
64668;BME280;51077;42.716;23.344;2024-03-07T11:48:25;95195.72;;;13.93;48.26
64668;BME280;51077;42.716;23.344;2024-03-07T11:50:51;95203.78;;;13.91;48.21
64668;BME280;51077;42.716;23.344;2024-03-07T11:53:16;95200.63;;;13.87;48.37
64668;BME280;51077;42.716;23.344;2024-03-07T11:55:43;95185.69;;;13.82;48.20
64668;BME280;51077;42.716;23.344;2024-03-07T11:58:15;95188.22;;;13.80;48.27
64668;BME280;51077;42.716;23.344;2024-03-07T12:00:42;95188.03;;;13.78;48.51
64668;BME280;51077;42.716;23.344;2024-03-07T12:03:16;95185.91;;;13.71;48.67
64668;BME280;51077;42.716;23.344;2024-03-07T12:05:49;95190.50;;;13.68;48.92
64668;BME280;51077;42.716;23.344;2024-03-07T12:08:17;95185.09;;;13.63;49.13
64668;BME280;51077;42.716;23.344;2024-03-07T12:10:43;95184.88;;;13.61;48.91
64668;BME280;51077;42.716;23.344;2024-03-07T12:13:11;95176.63;;;13.61;49.14
64668;BME280;51077;42.716;23.344;2024-03-07T12:15:40;95179.91;;;13.59;49.47
64668;BME280;51077;42.716;23.344;2024-03-07T12:18:06;95183.53;;;13.54;49.47
64668;BME280;51077;42.716;23.344;2024-03-07T12:20:39;95184.91;;;13.47;49.83
64668;BME280;51077;42.716;23.344;2024-03-07T12:23:07;95179.41;;;13.47;49.93
64668;BME280;51077;42.716;23.344;2024-03-07T12:25:34;95185.34;;;13.38;50.06
64668;BME280;51077;42.716;23.344;2024-03-07T12:28:02;95176.56;;;13.26;50.23
64668;BME280;51077;42.716;23.344;2024-03-07T12:30:31;95195.13;;;13.26;50.18
64668;BME280;51077;42.716;23.344;2024-03-07T12:32:59;95185.38;;;13.25;50.29
64668;BME280;51077;42.716;23.344;2024-03-07T12:35:25;95181.94;;;13.19;50.16
64668;BME280;51077;42.716;23.344;2024-03-07T12:37:52;95182.47;;;13.17;49.96
64668;BME280;51077;42.716;23.344;2024-03-07T12:40:19;95175.50;;;13.16;50.04
64668;BME280;51077;42.716;23.344;2024-03-07T12:42:50;95178.38;;;13.11;50.02
64668;BME280;51077;42.716;23.344;2024-03-07T12:45:19;95184.06;;;13.13;49.98
64668;BME280;51077;42.716;23.344;2024-03-07T12:47:46;95189.38;;;12.97;49.79
64668;BME280;51077;42.716;23.344;2024-03-07T12:50:12;95172.63;;;12.95;49.81
64668;BME280;51077;42.716;23.344;2024-03-07T12:52:38;95170.94;;;12.92;49.76
64668;BME280;51077;42.716;23.344;2024-03-07T12:55:06;95185.56;;;12.87;49.63
64668;BME280;51077;42.716;23.344;2024-03-07T12:57:31;95179.63;;;12.83;49.61